createdAt,value
2019-02-24T00:00:01.138Z,16.3
2019-02-24T00:05:01.233Z,16.0
2019-02-24T00:10:01.163Z,15.1
2019-02-24T00:15:01.169Z,14.9
2019-02-24T00:20:01.116Z,14.5
2019-02-24T00:25:01.215Z,13.7
2019-02-24T00:30:01.196Z,12.3
2019-02-24T00:35:01.172Z,12.0
2019-02-24T00:40:01.161Z,12.6
2019-02-24T00:45:01.262Z,12.8
2019-02-24T00:50:01.174Z,13.3
2019-02-24T00:55:01.303Z,13.2
2019-02-24T01:00:01.205Z,12.1
2019-02-24T01:05:01.180Z,11.5
2019-02-24T01:10:01.207Z,11.4
2019-02-24T01:15:02.582Z,11.4
2019-02-24T01:25:01.197Z,11.6
2019-02-24T01:30:01.134Z,12.0
2019-02-24T01:35:01.264Z,12.6
2019-02-24T01:40:01.187Z,13.4
2019-02-24T01:45:01.171Z,13.8
2019-02-24T01:50:01.187Z,13.7
2019-02-24T01:55:01.952Z,13.5
2019-02-24T02:00:01.172Z,12.4
2019-02-24T02:05:01.337Z,12.0
2019-02-24T02:10:01.110Z,10.9
2019-02-24T02:15:01.264Z,10.8
2019-02-24T02:20:01.178Z,11.5
2019-02-24T02:30:01.311Z,12.3
2019-02-24T02:40:01.217Z,11.7
2019-02-24T02:45:01.276Z,10.8
2019-02-24T02:50:01.181Z,10.9
2019-02-24T02:55:01.417Z,10.2
2019-02-24T03:00:01.245Z,10.5
2019-02-24T03:20:01.132Z,12.2
2019-02-24T03:25:01.194Z,11.6
2019-02-24T03:30:01.358Z,11.6
2019-02-24T03:35:01.244Z,11.5
2019-02-24T03:40:01.123Z,12.1
2019-02-24T03:45:01.197Z,12.2
2019-02-24T03:50:01.137Z,13.2
2019-02-24T03:55:01.279Z,13.2
2019-02-24T04:00:01.112Z,13.8
2019-02-24T04:05:01.222Z,13.7
2019-02-24T04:10:01.207Z,13.9
2019-02-24T04:15:01.249Z,13.8
2019-02-24T04:20:01.183Z,14.1
2019-02-24T04:25:01.298Z,13.5
2019-02-24T04:30:01.244Z,13.2
2019-02-24T04:35:01.249Z,12.8
2019-02-24T04:40:01.162Z,12.1
2019-02-24T04:45:01.213Z,12.0
2019-02-24T04:55:01.216Z,11.2
2019-02-24T05:00:01.199Z,10.7
2019-02-24T05:05:01.283Z,11.0
2019-02-24T05:10:01.146Z,11.4
2019-02-24T05:15:01.213Z,11.5
2019-02-24T05:20:01.174Z,11.4
2019-02-24T05:25:01.322Z,11.5
2019-02-24T05:30:01.168Z,12.5
2019-02-24T05:35:01.362Z,12.6
2019-02-24T05:40:01.131Z,12.5
2019-02-24T05:45:01.290Z,12.3
2019-02-24T05:50:01.161Z,12.3
2019-02-24T05:55:01.222Z,12.0
2019-02-24T06:00:01.199Z,11.1
2019-02-24T06:05:01.159Z,10.9
2019-02-24T06:10:02.202Z,10.7
2019-02-24T06:15:01.293Z,10.9
2019-02-24T06:20:01.129Z,10.7
2019-02-24T06:25:01.234Z,11.0
2019-02-24T06:30:05.873Z,11.2
2019-02-24T06:35:01.295Z,11.3
2019-02-24T06:40:01.144Z,11.0
2019-02-24T06:45:01.305Z,11.0
2019-02-24T06:50:01.175Z,10.7
2019-02-24T06:55:01.237Z,10.8
2019-02-24T07:00:01.179Z,9.6
2019-02-24T07:05:01.186Z,9.4
2019-02-24T07:10:01.204Z,9.5
2019-02-24T07:15:01.274Z,10.1
2019-02-24T07:20:01.214Z,10.0
2019-02-24T07:30:06.254Z,11.1
2019-02-24T07:35:01.329Z,11.0
2019-02-24T07:40:01.189Z,11.0
2019-02-24T07:45:01.319Z,11.4
2019-02-24T07:50:01.273Z,14.1
2019-02-24T08:00:01.290Z,14.8
2019-02-24T08:05:01.255Z,14.0
2019-02-24T08:10:01.199Z,14.9
2019-02-24T08:15:01.330Z,14.4
2019-02-24T08:20:01.209Z,15.0
2019-02-24T08:30:02.812Z,15.2
2019-02-24T08:35:01.271Z,16.3
2019-02-24T08:40:01.211Z,17.9
2019-02-24T08:45:01.348Z,17.8
2019-02-24T08:50:01.216Z,20.8
2019-02-24T08:55:01.276Z,21.4
2019-02-24T09:00:01.212Z,20.9
2019-02-24T09:05:01.267Z,21.1
2019-02-24T09:10:01.212Z,22.2
2019-02-24T09:15:01.361Z,22.7
2019-02-24T09:20:01.233Z,24.5
2019-02-24T09:25:03.629Z,24.2
2019-02-24T09:30:01.240Z,24.7
2019-02-24T09:35:01.384Z,24.4
2019-02-24T09:40:01.216Z,25.0
2019-02-24T09:45:01.340Z,24.6
2019-02-24T09:55:01.286Z,25.3
2019-02-24T10:00:01.268Z,26.1
2019-02-24T10:05:01.331Z,24.6
2019-02-24T10:10:01.259Z,25.1
2019-02-24T10:15:01.346Z,26.1
2019-02-24T10:25:01.230Z,27.7
2019-02-24T10:30:01.246Z,27.9
2019-02-24T10:35:01.471Z,27.9
2019-02-24T10:40:01.238Z,29.0
2019-02-24T10:45:01.236Z,28.5
2019-02-24T10:50:01.205Z,28.4
2019-02-24T10:55:01.359Z,28.6
2019-02-24T11:00:01.241Z,30.5
2019-02-24T11:05:01.296Z,31.1
2019-02-24T11:10:01.266Z,31.3
2019-02-24T11:15:01.379Z,31.8
2019-02-24T11:20:01.218Z,31.8
2019-02-24T11:25:01.372Z,31.4
2019-02-24T11:30:01.253Z,32.4
2019-02-24T11:35:01.309Z,32.2
2019-02-24T11:40:01.249Z,32.8
2019-02-24T11:45:06.345Z,32.7
2019-02-24T11:50:06.263Z,32.9
2019-02-24T11:55:01.357Z,32.6
2019-02-24T12:00:06.274Z,32.8
2019-02-24T12:05:01.416Z,32.3
2019-02-24T12:10:06.270Z,32.0
2019-02-24T12:15:06.353Z,33.3
2019-02-24T12:20:06.269Z,32.9
2019-02-24T12:30:06.368Z,32.1
2019-02-24T12:35:01.347Z,33.2
2019-02-24T12:40:01.280Z,33.0
2019-02-24T12:45:06.369Z,32.9
2019-02-24T12:50:03.920Z,32.9
2019-02-24T12:55:01.391Z,33.1
2019-02-24T13:00:01.292Z,31.6
2019-02-24T13:05:01.351Z,32.3
2019-02-24T13:10:01.311Z,32.8
2019-02-24T13:15:03.598Z,32.2
2019-02-24T13:20:01.286Z,34.4
2019-02-24T13:25:01.426Z,34.7
2019-02-24T13:30:01.260Z,35.3
2019-02-24T13:35:01.396Z,34.8
2019-02-24T13:40:01.327Z,34.1
2019-02-24T13:45:01.378Z,33.9
2019-02-24T13:50:01.361Z,34.4
2019-02-24T13:55:01.444Z,33.6
2019-02-24T14:00:01.457Z,33.4
2019-02-24T14:05:01.384Z,33.7
2019-02-24T14:10:01.339Z,33.5
2019-02-24T14:15:01.472Z,33.7
2019-02-24T14:20:01.277Z,33.3
2019-02-24T14:25:01.455Z,32.8
2019-02-24T14:30:01.276Z,33.8
2019-02-24T14:35:01.422Z,34.1
2019-02-24T14:40:01.301Z,34.5
2019-02-24T14:45:01.375Z,33.4
2019-02-24T14:50:01.307Z,33.7
2019-02-24T14:55:01.436Z,32.2
2019-02-24T15:00:06.294Z,31.4
2019-02-24T15:05:06.302Z,33.2
2019-02-24T15:15:01.349Z,31.6
2019-02-24T15:20:01.303Z,31.5
2019-02-24T15:25:06.273Z,31.2
2019-02-24T15:30:01.282Z,31.0
2019-02-24T15:35:06.275Z,31.3
2019-02-24T15:40:01.297Z,31.4
2019-02-24T15:45:01.305Z,32.0
2019-02-24T15:50:06.538Z,32.1
2019-02-24T16:00:01.454Z,32.4
2019-02-24T16:05:01.339Z,31.2
2019-02-24T16:10:01.348Z,31.0
2019-02-24T16:15:01.404Z,30.7
2019-02-24T16:20:01.296Z,31.3
2019-02-24T16:25:01.346Z,30.9
2019-02-24T16:30:01.283Z,31.3
2019-02-24T16:35:01.353Z,30.6
2019-02-24T16:40:01.292Z,30.0
2019-02-24T16:45:01.423Z,30.2
2019-02-24T16:50:01.296Z,30.4
2019-02-24T16:55:01.378Z,29.7
2019-02-24T17:00:01.265Z,28.8
2019-02-24T17:05:01.479Z,27.7
2019-02-24T17:10:01.293Z,27.3
2019-02-24T17:15:01.483Z,26.4
2019-02-24T17:20:01.285Z,26.2
2019-02-24T17:25:01.407Z,26.1
2019-02-24T17:30:01.297Z,26.9
2019-02-24T17:35:01.365Z,26.6
2019-02-24T17:40:01.286Z,27.5
2019-02-24T17:45:01.963Z,27.2
2019-02-24T17:50:01.301Z,28.1
2019-02-24T17:55:01.411Z,28.4
2019-02-24T18:00:01.247Z,29.5
2019-02-24T18:05:01.297Z,29.0
2019-02-24T18:10:01.259Z,31.0
2019-02-24T18:15:01.346Z,28.9
2019-02-24T18:20:01.302Z,29.3
2019-02-24T18:25:03.863Z,29.1
2019-02-24T18:30:01.302Z,30.3
2019-02-24T18:35:01.331Z,26.4
2019-02-24T18:40:01.266Z,25.8
2019-02-24T18:45:01.362Z,24.2
2019-02-24T18:50:01.322Z,23.2
2019-02-24T18:55:01.453Z,19.7
2019-02-24T19:00:01.383Z,19.5
2019-02-24T19:05:01.376Z,18.5
2019-02-24T19:10:01.333Z,18.1
2019-02-24T19:15:01.330Z,17.6
2019-02-24T19:20:01.280Z,17.7
2019-02-24T19:25:01.400Z,17.5
2019-02-24T19:30:01.257Z,16.0
2019-02-24T19:35:01.421Z,17.0
2019-02-24T19:40:01.282Z,18.4
2019-02-24T19:45:01.359Z,19.0
2019-02-24T19:50:01.489Z,18.2
2019-02-24T19:55:01.359Z,18.8
2019-02-24T20:00:01.290Z,17.9
2019-02-24T20:05:01.349Z,17.6
2019-02-24T20:10:01.274Z,16.3
2019-02-24T20:15:01.410Z,16.7
2019-02-24T20:20:01.286Z,14.8
2019-02-24T20:25:01.394Z,14.5
2019-02-24T20:30:01.302Z,12.4
2019-02-24T20:35:01.364Z,12.5
2019-02-24T20:40:01.296Z,10.9
2019-02-24T20:45:01.367Z,11.0
2019-02-24T20:50:01.367Z,7.4
2019-02-24T20:55:01.378Z,7.4
2019-02-24T21:00:01.276Z,9.1
2019-02-24T21:05:01.356Z,8.8
2019-02-24T21:10:01.313Z,10.9
2019-02-24T21:15:01.420Z,10.9
2019-02-24T21:20:01.321Z,10.1
2019-02-24T21:25:01.387Z,10.3
2019-02-24T21:30:01.498Z,8.7
2019-02-24T21:35:01.389Z,8.8
2019-02-24T21:40:01.351Z,8.4
2019-02-24T21:45:01.457Z,8.3
2019-02-24T21:50:01.366Z,8.7
2019-02-24T21:55:01.369Z,8.5
2019-02-24T22:00:01.298Z,8.3
2019-02-24T22:05:01.353Z,8.2
2019-02-24T22:10:01.234Z,6.1
2019-02-24T22:15:01.310Z,6.1
2019-02-24T22:20:01.328Z,7.6
2019-02-24T22:25:01.455Z,7.8
2019-02-24T22:30:01.334Z,7.5
2019-02-24T22:35:01.392Z,8.1
2019-02-24T22:40:01.341Z,6.2
2019-02-24T22:45:01.379Z,6.3
2019-02-24T22:50:01.341Z,5.8
2019-02-24T22:55:01.350Z,5.9
2019-02-24T23:00:01.293Z,7.7
2019-02-24T23:05:01.411Z,7.8
2019-02-24T23:10:01.389Z,8.9
2019-02-24T23:15:01.476Z,9.1
2019-02-24T23:20:01.329Z,7.3
2019-02-24T23:25:01.461Z,7.2
2019-02-24T23:30:01.323Z,6.6
2019-02-24T23:35:01.416Z,6.7
2019-02-24T23:40:01.336Z,6.1
2019-02-24T23:45:10.943Z,6.1
2019-02-24T23:50:01.325Z,4.6
2019-02-24T23:55:01.459Z,4.4
